sensor_id;sensor_type;location;lat;lon;timestamp;pressure;altitude;pressure_sealevel;temperature;humidity
61537;BME280;48695;53.480;-6.300;2024-03-08T00:02:00;100801.34;;;10.14;61.74
61537;BME280;48695;53.480;-6.300;2024-03-08T00:04:25;100809.06;;;10.21;61.60
61537;BME280;48695;53.480;-6.300;2024-03-08T00:06:50;100809.09;;;10.19;61.85
61537;BME280;48695;53.480;-6.300;2024-03-08T00:09:16;100809.06;;;10.21;61.62
61537;BME280;48695;53.480;-6.300;2024-03-08T00:11:41;100812.56;;;10.20;61.59
61537;BME280;48695;53.480;-6.300;2024-03-08T00:14:07;100817.78;;;10.20;61.91
61537;BME280;48695;53.480;-6.300;2024-03-08T00:16:33;100815.97;;;10.22;61.57
61537;BME280;48695;53.480;-6.300;2024-03-08T00:18:59;100818.63;;;10.20;61.91
61537;BME280;48695;53.480;-6.300;2024-03-08T00:21:24;100815.97;;;10.22;61.57
61537;BME280;48695;53.480;-6.300;2024-03-08T00:23:52;100807.31;;;10.21;61.47
61537;BME280;48695;53.480;-6.300;2024-03-08T00:26:19;100798.84;;;10.08;61.29
61537;BME280;48695;53.480;-6.300;2024-03-08T00:28:44;100822.91;;;10.23;61.37
61537;BME280;48695;53.480;-6.300;2024-03-08T00:31:10;100810.75;;;10.22;61.09
61537;BME280;48695;53.480;-6.300;2024-03-08T00:33:36;100798.69;;;10.16;61.25
61537;BME280;48695;53.480;-6.300;2024-03-08T00:36:02;100799.47;;;10.21;61.24
61537;BME280;48695;53.480;-6.300;2024-03-08T00:38:27;100783.00;;;10.18;61.46
61537;BME280;48695;53.480;-6.300;2024-03-08T00:40:53;100789.88;;;10.22;61.45
61537;BME280;48695;53.480;-6.300;2024-03-08T00:43:18;100795.09;;;10.22;61.11
61537;BME280;48695;53.480;-6.300;2024-03-08T00:45:44;100784.66;;;10.22;61.20
61537;BME280;48695;53.480;-6.300;2024-03-08T00:48:09;100762.31;;;10.08;61.38
61537;BME280;48695;53.480;-6.300;2024-03-08T00:50:36;100784.66;;;10.22;61.32
61537;BME280;48695;53.480;-6.300;2024-03-08T00:53:01;100770.84;;;10.17;61.16
61537;BME280;48695;53.480;-6.300;2024-03-08T00:55:27;100770.81;;;10.20;60.93
61537;BME280;48695;53.480;-6.300;2024-03-08T00:57:52;100769.94;;;10.19;61.28
61537;BME280;48695;53.480;-6.300;2024-03-08T01:00:19;100770.84;;;10.17;61.50
61537;BME280;48695;53.480;-6.300;2024-03-08T01:02:46;100770.84;;;10.17;60.81
61537;BME280;48695;53.480;-6.300;2024-03-08T01:05:11;100757.00;;;10.14;61.31
61537;BME280;48695;53.480;-6.300;2024-03-08T01:07:37;100763.97;;;10.14;61.12
61537;BME280;48695;53.480;-6.300;2024-03-08T01:10:05;100744.03;;;10.08;60.98
61537;BME280;48695;53.480;-6.300;2024-03-08T01:12:35;100750.91;;;10.12;60.82
61537;BME280;48695;53.480;-6.300;2024-03-08T01:15:00;100753.53;;;10.12;61.15
61537;BME280;48695;53.480;-6.300;2024-03-08T01:17:26;100741.38;;;10.11;61.02
61537;BME280;48695;53.480;-6.300;2024-03-08T01:19:52;100743.16;;;10.09;60.99
61537;BME280;48695;53.480;-6.300;2024-03-08T01:22:18;100736.19;;;10.10;61.08
61537;BME280;48695;53.480;-6.300;2024-03-08T01:24:44;100737.97;;;10.09;61.08
61537;BME280;48695;53.480;-6.300;2024-03-08T01:27:09;100741.44;;;10.08;61.46
61537;BME280;48695;53.480;-6.300;2024-03-08T01:29:34;100737.97;;;10.08;61.18
61537;BME280;48695;53.480;-6.300;2024-03-08T01:32:00;100700.22;;;9.84;61.42
61537;BME280;48695;53.480;-6.300;2024-03-08T01:34:28;100744.06;;;10.07;61.06
61537;BME280;48695;53.480;-6.300;2024-03-08T01:36:54;100737.16;;;10.06;61.73
61537;BME280;48695;53.480;-6.300;2024-03-08T01:39:21;100741.50;;;10.05;61.58
61537;BME280;48695;53.480;-6.300;2024-03-08T01:41:47;100736.28;;;10.05;61.42
61537;BME280;48695;53.480;-6.300;2024-03-08T01:44:13;100738.06;;;10.03;61.42
61537;BME280;48695;53.480;-6.300;2024-03-08T01:46:44;100734.56;;;10.04;61.51
61537;BME280;48695;53.480;-6.300;2024-03-08T01:49:10;100727.63;;;10.03;60.93
61537;BME280;48695;53.480;-6.300;2024-03-08T01:51:36;100727.66;;;10.02;60.88
61537;BME280;48695;53.480;-6.300;2024-03-08T01:54:03;100724.25;;;9.98;61.11
61537;BME280;48695;53.480;-6.300;2024-03-08T01:56:30;100720.00;;;9.93;61.19
61537;BME280;48695;53.480;-6.300;2024-03-08T01:58:57;100726.00;;;9.98;61.20
61537;BME280;48695;53.480;-6.300;2024-03-08T02:01:23;100720.81;;;9.96;61.01
61537;BME280;48695;53.480;-6.300;2024-03-08T02:03:49;100713.88;;;9.95;61.52
61537;BME280;48695;53.480;-6.300;2024-03-08T02:06:15;100706.97;;;9.94;61.16
61537;BME280;48695;53.480;-6.300;2024-03-08T02:08:45;100713.00;;;9.96;61.45
61537;BME280;48695;53.480;-6.300;2024-03-08T02:11:11;100716.50;;;9.95;61.58
61537;BME280;48695;53.480;-6.300;2024-03-08T02:13:36;100702.59;;;9.95;61.17
61537;BME280;48695;53.480;-6.300;2024-03-08T02:16:02;100697.47;;;9.90;61.44
61537;BME280;48695;53.480;-6.300;2024-03-08T02:18:29;100701.75;;;9.94;61.42
61537;BME280;48695;53.480;-6.300;2024-03-08T02:20:55;100691.31;;;9.94;61.21
61537;BME280;48695;53.480;-6.300;2024-03-08T02:23:21;100691.31;;;9.93;60.84
61537;BME280;48695;53.480;-6.300;2024-03-08T02:25:47;100687.84;;;9.92;61.25
61537;BME280;48695;53.480;-6.300;2024-03-08T02:28:13;100677.50;;;9.89;60.83
61537;BME280;48695;53.480;-6.300;2024-03-08T02:30:40;100676.59;;;9.90;60.56
61537;BME280;48695;53.480;-6.300;2024-03-08T02:33:06;100670.63;;;9.85;60.58
61537;BME280;48695;53.480;-6.300;2024-03-08T02:35:32;100657.78;;;9.74;60.78
61537;BME280;48695;53.480;-6.300;2024-03-08T02:37:58;100677.53;;;9.86;60.74
61537;BME280;48695;53.480;-6.300;2024-03-08T02:40:23;100676.69;;;9.85;60.96
61537;BME280;48695;53.480;-6.300;2024-03-08T02:42:49;100669.72;;;9.86;60.83
61537;BME280;48695;53.480;-6.300;2024-03-08T02:45:14;100663.69;;;9.84;60.73
61537;BME280;48695;53.480;-6.300;2024-03-08T02:47:40;100660.19;;;9.85;60.54
61537;BME280;48695;53.480;-6.300;2024-03-08T02:50:06;100653.25;;;9.84;60.48
61537;BME280;48695;53.480;-6.300;2024-03-08T02:52:33;100590.53;;;9.48;60.84
61537;BME280;48695;53.480;-6.300;2024-03-08T02:54:59;100646.31;;;9.83;60.47
61537;BME280;48695;53.480;-6.300;2024-03-08T02:57:24;100635.00;;;9.82;60.82
61537;BME280;48695;53.480;-6.300;2024-03-08T02:59:50;100629.78;;;9.82;60.91
61537;BME280;48695;53.480;-6.300;2024-03-08T03:02:15;100622.88;;;9.81;60.98
61537;BME280;48695;53.480;-6.300;2024-03-08T03:04:42;100620.31;;;9.80;60.43
61537;BME280;48695;53.480;-6.300;2024-03-08T03:07:08;100607.44;;;9.71;60.87
61537;BME280;48695;53.480;-6.300;2024-03-08T03:09:33;100610.78;;;9.77;61.06
61537;BME280;48695;53.480;-6.300;2024-03-08T03:11:59;100573.75;;;9.61;61.13
61537;BME280;48695;53.480;-6.300;2024-03-08T03:14:24;100599.50;;;9.77;60.77
61537;BME280;48695;53.480;-6.300;2024-03-08T03:16:52;100587.41;;;9.73;60.58
61537;BME280;48695;53.480;-6.300;2024-03-08T03:19:17;100584.78;;;9.74;60.84
61537;BME280;48695;53.480;-6.300;2024-03-08T03:21:43;100584.78;;;9.74;60.42
61537;BME280;48695;53.480;-6.300;2024-03-08T03:24:09;100571.75;;;9.73;60.59
61537;BME280;48695;53.480;-6.300;2024-03-08T03:26:38;100578.75;;;9.71;60.78
61537;BME280;48695;53.480;-6.300;2024-03-08T03:29:07;100580.47;;;9.72;60.89
61537;BME280;48695;53.480;-6.300;2024-03-08T03:31:34;100551.06;;;9.65;60.97
61537;BME280;48695;53.480;-6.300;2024-03-08T03:34:00;100563.13;;;9.71;60.81
61537;BME280;48695;53.480;-6.300;2024-03-08T03:36:31;100545.03;;;9.63;60.76
61537;BME280;48695;53.480;-6.300;2024-03-08T03:38:57;100556.25;;;9.68;61.27
61537;BME280;48695;53.480;-6.300;2024-03-08T03:41:36;100547.56;;;9.66;60.99
61537;BME280;48695;53.480;-6.300;2024-03-08T03:44:01;100546.72;;;9.66;60.95
61537;BME280;48695;53.480;-6.300;2024-03-08T03:46:27;100545.81;;;9.67;60.89
61537;BME280;48695;53.480;-6.300;2024-03-08T03:48:55;100543.22;;;9.67;61.14
61537;BME280;48695;53.480;-6.300;2024-03-08T03:51:21;100538.94;;;9.64;60.93
61537;BME280;48695;53.480;-6.300;2024-03-08T03:53:46;100533.72;;;9.64;60.95
61537;BME280;48695;53.480;-6.300;2024-03-08T03:56:12;100536.34;;;9.64;60.95
61537;BME280;48695;53.480;-6.300;2024-03-08T03:58:37;100538.09;;;9.64;61.13
61537;BME280;48695;53.480;-6.300;2024-03-08T04:01:04;100528.53;;;9.62;60.81
61537;BME280;48695;53.480;-6.300;2024-03-08T04:03:30;100535.53;;;9.60;60.82
61537;BME280;48695;53.480;-6.300;2024-03-08T04:05:55;100522.53;;;9.59;60.81
61537;BME280;48695;53.480;-6.300;2024-03-08T04:08:21;100520.84;;;9.56;60.82
61537;BME280;48695;53.480;-6.300;2024-03-08T04:10:46;100515.66;;;9.55;60.76
61537;BME280;48695;53.480;-6.300;2024-03-08T04:13:11;100520.91;;;9.53;61.12
61537;BME280;48695;53.480;-6.300;2024-03-08T04:15:37;100514.81;;;9.53;60.91
61537;BME280;48695;53.480;-6.300;2024-03-08T04:18:03;100502.72;;;9.50;61.21
61537;BME280;48695;53.480;-6.300;2024-03-08T04:20:29;100508.84;;;9.49;61.57
61537;BME280;48695;53.480;-6.300;2024-03-08T04:22:55;100502.78;;;9.47;61.83
61537;BME280;48695;53.480;-6.300;2024-03-08T04:25:21;100506.28;;;9.46;61.56
61537;BME280;48695;53.480;-6.300;2024-03-08T04:27:46;100501.97;;;9.45;61.65
61537;BME280;48695;53.480;-6.300;2024-03-08T04:30:14;100489.13;;;9.36;61.09
61537;BME280;48695;53.480;-6.300;2024-03-08T04:32:39;100500.28;;;9.43;61.16
61537;BME280;48695;53.480;-6.300;2024-03-08T04:35:06;100514.19;;;9.42;61.56
61537;BME280;48695;53.480;-6.300;2024-03-08T04:37:33;100498.75;;;9.34;61.16
61537;BME280;48695;53.480;-6.300;2024-03-08T04:39:59;100503.00;;;9.38;61.58
61537;BME280;48695;53.480;-6.300;2024-03-08T04:42:25;100502.13;;;9.38;61.44
61537;BME280;48695;53.480;-6.300;2024-03-08T04:44:52;100492.63;;;9.35;61.11
61537;BME280;48695;53.480;-6.300;2024-03-08T04:47:18;100489.13;;;9.36;61.22
61537;BME280;48695;53.480;-6.300;2024-03-08T04:49:44;100459.88;;;9.22;61.16
61537;BME280;48695;53.480;-6.300;2024-03-08T04:52:09;100463.38;;;9.21;61.17
61537;BME280;48695;53.480;-6.300;2024-03-08T04:54:35;100484.88;;;9.32;61.24
61537;BME280;48695;53.480;-6.300;2024-03-08T04:57:00;100475.34;;;9.31;60.87
61537;BME280;48695;53.480;-6.300;2024-03-08T04:59:27;100473.69;;;9.27;61.56
61537;BME280;48695;53.480;-6.300;2024-03-08T05:01:52;100481.50;;;9.28;61.42
61537;BME280;48695;53.480;-6.300;2024-03-08T05:04:18;100471.91;;;9.29;61.80
61537;BME280;48695;53.480;-6.300;2024-03-08T05:06:43;100466.72;;;9.27;61.62
61537;BME280;48695;53.480;-6.300;2024-03-08T05:09:09;100458.91;;;9.27;61.82
61537;BME280;48695;53.480;-6.300;2024-03-08T05:11:42;100449.56;;;9.19;61.66
61537;BME280;48695;53.480;-6.300;2024-03-08T05:14:09;100446.94;;;9.19;61.86
61537;BME280;48695;53.480;-6.300;2024-03-08T05:16:34;100458.94;;;9.26;61.91
61537;BME280;48695;53.480;-6.300;2024-03-08T05:19:01;100457.19;;;9.26;62.08
61537;BME280;48695;53.480;-6.300;2024-03-08T05:21:26;100446.91;;;9.20;61.95
61537;BME280;48695;53.480;-6.300;2024-03-08T05:23:51;100451.13;;;9.26;62.02
61537;BME280;48695;53.480;-6.300;2024-03-08T05:26:17;100449.41;;;9.25;61.86
61537;BME280;48695;53.480;-6.300;2024-03-08T05:28:42;100448.56;;;9.24;62.15
61537;BME280;48695;53.480;-6.300;2024-03-08T05:31:08;100431.31;;;9.17;62.12
61537;BME280;48695;53.480;-6.300;2024-03-08T05:33:33;100419.28;;;9.12;62.35
61537;BME280;48695;53.480;-6.300;2024-03-08T05:36:02;100431.31;;;9.19;62.04
61537;BME280;48695;53.480;-6.300;2024-03-08T05:38:28;100439.13;;;9.19;62.33
61537;BME280;48695;53.480;-6.300;2024-03-08T05:40:54;100415.97;;;9.05;61.80
61537;BME280;48695;53.480;-6.300;2024-03-08T05:43:19;100425.34;;;9.14;62.40
61537;BME280;48695;53.480;-6.300;2024-03-08T05:45:46;100426.25;;;9.13;62.10
61537;BME280;48695;53.480;-6.300;2024-03-08T05:48:11;100419.38;;;9.08;62.57
61537;BME280;48695;53.480;-6.300;2024-03-08T05:50:39;100422.03;;;9.05;62.42
61537;BME280;48695;53.480;-6.300;2024-03-08T05:53:05;100418.66;;;9.00;62.37
61537;BME280;48695;53.480;-6.300;2024-03-08T05:55:33;100426.56;;;8.97;62.39
61537;BME280;48695;53.480;-6.300;2024-03-08T05:58:01;100420.59;;;8.92;62.37
61537;BME280;48695;53.480;-6.300;2024-03-08T06:00:27;100387.19;;;8.69;62.25
61537;BME280;48695;53.480;-6.300;2024-03-08T06:02:53;100419.06;;;8.82;62.77
61537;BME280;48695;53.480;-6.300;2024-03-08T06:05:18;100410.47;;;8.77;62.96
61537;BME280;48695;53.480;-6.300;2024-03-08T06:07:43;100414.88;;;8.73;63.11
61537;BME280;48695;53.480;-6.300;2024-03-08T06:10:10;100396.88;;;8.63;63.22
61537;BME280;48695;53.480;-6.300;2024-03-08T06:12:36;100405.50;;;8.65;63.33
61537;BME280;48695;53.480;-6.300;2024-03-08T06:15:09;100409.03;;;8.61;63.31
61537;BME280;48695;53.480;-6.300;2024-03-08T06:17:38;100396.97;;;8.56;63.35
61537;BME280;48695;53.480;-6.300;2024-03-08T06:20:04;100393.50;;;8.57;63.38
61537;BME280;48695;53.480;-6.300;2024-03-08T06:22:41;100389.16;;;8.56;63.31
61537;BME280;48695;53.480;-6.300;2024-03-08T06:25:08;100387.47;;;8.55;63.44
61537;BME280;48695;53.480;-6.300;2024-03-08T06:27:33;100390.06;;;8.55;63.36
61537;BME280;48695;53.480;-6.300;2024-03-08T06:29:59;100388.34;;;8.54;63.78
61537;BME280;48695;53.480;-6.300;2024-03-08T06:32:25;100384.00;;;8.55;63.46
61537;BME280;48695;53.480;-6.300;2024-03-08T06:34:50;100383.13;;;8.54;63.36
61537;BME280;48695;53.480;-6.300;2024-03-08T06:37:16;100372.72;;;8.54;63.55
61537;BME280;48695;53.480;-6.300;2024-03-08T06:39:47;100371.03;;;8.53;63.07
61537;BME280;48695;53.480;-6.300;2024-03-08T06:42:13;100377.97;;;8.51;63.37
61537;BME280;48695;53.480;-6.300;2024-03-08T06:44:38;100376.34;;;8.47;63.15
61537;BME280;48695;53.480;-6.300;2024-03-08T06:47:10;100372.06;;;8.45;63.43
61537;BME280;48695;53.480;-6.300;2024-03-08T06:49:36;100369.53;;;8.40;63.04
61537;BME280;48695;53.480;-6.300;2024-03-08T06:52:01;100368.63;;;8.41;63.07
61537;BME280;48695;53.480;-6.300;2024-03-08T06:54:27;100367.81;;;8.39;63.29
61537;BME280;48695;53.480;-6.300;2024-03-08T06:56:52;100374.81;;;8.37;63.49
61537;BME280;48695;53.480;-6.300;2024-03-08T06:59:17;100378.31;;;8.33;63.58
61537;BME280;48695;53.480;-6.300;2024-03-08T07:01:43;100370.56;;;8.31;63.81
61537;BME280;48695;53.480;-6.300;2024-03-08T07:04:08;100368.00;;;8.28;63.79
61537;BME280;48695;53.480;-6.300;2024-03-08T07:06:34;100367.16;;;8.28;63.60
61537;BME280;48695;53.480;-6.300;2024-03-08T07:08:59;100362.84;;;8.25;64.16
61537;BME280;48695;53.480;-6.300;2024-03-08T07:11:25;100369.78;;;8.25;63.58
61537;BME280;48695;53.480;-6.300;2024-03-08T07:13:50;100352.53;;;8.21;63.75
61537;BME280;48695;53.480;-6.300;2024-03-08T07:16:16;100363.81;;;8.21;64.14
61537;BME280;48695;53.480;-6.300;2024-03-08T07:18:41;100358.69;;;8.17;63.70
61537;BME280;48695;53.480;-6.300;2024-03-08T07:21:09;100360.44;;;8.16;64.22
61537;BME280;48695;53.480;-6.300;2024-03-08T07:23:35;100363.97;;;8.12;63.89
61537;BME280;48695;53.480;-6.300;2024-03-08T07:26:28;100368.31;;;8.12;64.11
61537;BME280;48695;53.480;-6.300;2024-03-08T07:28:53;100365.72;;;8.10;64.48
61537;BME280;48695;53.480;-6.300;2024-03-08T07:31:20;100353.66;;;8.07;64.20
61537;BME280;48695;53.480;-6.300;2024-03-08T07:33:51;100356.25;;;8.07;64.54
61537;BME280;48695;53.480;-6.300;2024-03-08T07:36:18;100351.94;;;8.06;64.60
61537;BME280;48695;53.480;-6.300;2024-03-08T07:38:44;100330.63;;;7.86;64.39
61537;BME280;48695;53.480;-6.300;2024-03-08T07:41:12;100351.03;;;8.07;63.58
61537;BME280;48695;53.480;-6.300;2024-03-08T07:43:38;100353.69;;;8.06;64.39
61537;BME280;48695;53.480;-6.300;2024-03-08T07:46:03;100359.75;;;8.06;64.62
61537;BME280;48695;53.480;-6.300;2024-03-08T07:48:29;100331.38;;;7.93;64.64
61537;BME280;48695;53.480;-6.300;2024-03-08T07:50:56;100351.03;;;8.07;64.38
61537;BME280;48695;53.480;-6.300;2024-03-08T07:53:21;100352.72;;;8.10;64.86
61537;BME280;48695;53.480;-6.300;2024-03-08T07:55:48;100351.81;;;8.13;64.92
61537;BME280;48695;53.480;-6.300;2024-03-08T07:58:13;100342.38;;;8.07;64.93
61537;BME280;48695;53.480;-6.300;2024-03-08T08:00:38;100329.34;;;8.09;64.74
61537;BME280;48695;53.480;-6.300;2024-03-08T08:03:04;100344.72;;;8.21;64.68
61537;BME280;48695;53.480;-6.300;2024-03-08T08:05:30;100338.66;;;8.22;64.93
61537;BME280;48695;53.480;-6.300;2024-03-08T08:08:01;100351.41;;;8.37;64.87
61537;BME280;48695;53.480;-6.300;2024-03-08T08:10:28;100336.59;;;8.39;65.06
61537;BME280;48695;53.480;-6.300;2024-03-08T08:12:54;100324.38;;;8.44;65.12
61537;BME280;48695;53.480;-6.300;2024-03-08T08:15:19;100317.56;;;8.37;64.74
61537;BME280;48695;53.480;-6.300;2024-03-08T08:17:45;100305.34;;;8.41;64.89
61537;BME280;48695;53.480;-6.300;2024-03-08T08:20:11;100332.66;;;8.62;64.80
61537;BME280;48695;53.480;-6.300;2024-03-08T08:22:41;100330.78;;;8.70;63.71
61537;BME280;48695;53.480;-6.300;2024-03-08T08:25:08;100339.44;;;8.72;64.35
61537;BME280;48695;53.480;-6.300;2024-03-08T08:27:34;100325.47;;;8.74;64.37
61537;BME280;48695;53.480;-6.300;2024-03-08T08:30:02;100324.56;;;8.77;64.52
61537;BME280;48695;53.480;-6.300;2024-03-08T08:32:27;100317.56;;;8.79;64.35
61537;BME280;48695;53.480;-6.300;2024-03-08T08:34:53;100316.63;;;8.83;64.17
61537;BME280;48695;53.480;-6.300;2024-03-08T08:37:18;100314.78;;;8.87;64.34
61537;BME280;48695;53.480;-6.300;2024-03-08T08:39:44;100313.88;;;8.89;64.22
61537;BME280;48695;53.480;-6.300;2024-03-08T08:42:09;100315.53;;;8.93;64.24
61537;BME280;48695;53.480;-6.300;2024-03-08T08:44:35;100304.22;;;8.94;64.15
61537;BME280;48695;53.480;-6.300;2024-03-08T08:47:01;100311.00;;;9.01;64.01
61537;BME280;48695;53.480;-6.300;2024-03-08T08:49:28;100309.94;;;9.10;63.87
61537;BME280;48695;53.480;-6.300;2024-03-08T08:51:53;100316.84;;;9.11;64.05
61537;BME280;48695;53.480;-6.300;2024-03-08T08:54:19;100302.91;;;9.14;64.02
61537;BME280;48695;53.480;-6.300;2024-03-08T08:56:45;100305.41;;;9.18;64.13
61537;BME280;48695;53.480;-6.300;2024-03-08T08:59:12;100300.97;;;9.22;63.88
61537;BME280;48695;53.480;-6.300;2024-03-08T09:01:40;100292.19;;;9.26;64.01
61537;BME280;48695;53.480;-6.300;2024-03-08T09:04:05;100292.97;;;9.29;63.44
61537;BME280;48695;53.480;-6.300;2024-03-08T09:06:31;100294.66;;;9.32;63.67
61537;BME280;48695;53.480;-6.300;2024-03-08T09:08:57;100293.72;;;9.34;63.29
61537;BME280;48695;53.480;-6.300;2024-03-08T09:11:23;100284.16;;;9.35;63.52
61537;BME280;48695;53.480;-6.300;2024-03-08T09:13:49;100289.22;;;9.41;63.99
61537;BME280;48695;53.480;-6.300;2024-03-08T09:16:14;100274.44;;;9.42;63.74
61537;BME280;48695;53.480;-6.300;2024-03-08T09:18:41;100276.03;;;9.47;63.72
61537;BME280;48695;53.480;-6.300;2024-03-08T09:21:07;100273.28;;;9.53;63.60
61537;BME280;48695;53.480;-6.300;2024-03-08T09:23:35;100276.63;;;9.58;63.63
61537;BME280;48695;53.480;-6.300;2024-03-08T09:26:01;100270.47;;;9.61;63.66
61537;BME280;48695;53.480;-6.300;2024-03-08T09:28:28;100273.81;;;9.66;63.49
61537;BME280;48695;53.480;-6.300;2024-03-08T09:30:54;100277.16;;;9.71;63.35
61537;BME280;48695;53.480;-6.300;2024-03-08T09:33:20;100268.50;;;9.71;63.32
61537;BME280;48695;53.480;-6.300;2024-03-08T09:35:46;100279.59;;;9.79;62.85
61537;BME280;48695;53.480;-6.300;2024-03-08T09:38:12;100236.47;;;9.66;62.75
61537;BME280;48695;53.480;-6.300;2024-03-08T09:40:40;100257.69;;;9.84;63.34
61537;BME280;48695;53.480;-6.300;2024-03-08T09:43:06;100257.66;;;9.86;63.22
61537;BME280;48695;53.480;-6.300;2024-03-08T09:45:35;100237.69;;;9.85;62.60
61537;BME280;48695;53.480;-6.300;2024-03-08T09:48:01;100226.59;;;9.78;62.88
61537;BME280;48695;53.480;-6.300;2024-03-08T09:50:27;100247.88;;;9.94;62.69
61537;BME280;48695;53.480;-6.300;2024-03-08T09:52:54;100251.22;;;9.99;62.58
61537;BME280;48695;53.480;-6.300;2024-03-08T09:55:22;100243.28;;;10.02;62.74
61537;BME280;48695;53.480;-6.300;2024-03-08T09:57:48;100237.22;;;10.02;62.66
61537;BME280;48695;53.480;-6.300;2024-03-08T10:00:34;100208.03;;;9.89;62.37
61537;BME280;48695;53.480;-6.300;2024-03-08T10:03:01;100223.16;;;10.07;62.12
61537;BME280;48695;53.480;-6.300;2024-03-08T10:05:27;100217.84;;;10.10;62.40
61537;BME280;48695;53.480;-6.300;2024-03-08T10:07:53;100210.75;;;10.16;62.03
61537;BME280;48695;53.480;-6.300;2024-03-08T10:10:18;100210.56;;;10.22;62.10
61537;BME280;48695;53.480;-6.300;2024-03-08T10:12:44;100210.41;;;10.28;62.45
61537;BME280;48695;53.480;-6.300;2024-03-08T10:15:11;100202.44;;;10.32;62.24
61537;BME280;48695;53.480;-6.300;2024-03-08T10:17:37;100197.91;;;10.39;62.45
61537;BME280;48695;53.480;-6.300;2024-03-08T10:20:14;100198.31;;;10.55;62.30
61537;BME280;48695;53.480;-6.300;2024-03-08T10:22:41;100191.94;;;10.63;61.71
61537;BME280;48695;53.480;-6.300;2024-03-08T10:25:10;100208.16;;;10.75;61.96
61537;BME280;48695;53.480;-6.300;2024-03-08T10:27:36;100201.63;;;10.88;61.47
61537;BME280;48695;53.480;-6.300;2024-03-08T10:30:02;100187.34;;;10.98;61.04
61537;BME280;48695;53.480;-6.300;2024-03-08T10:32:27;100192.28;;;11.07;60.15
61537;BME280;48695;53.480;-6.300;2024-03-08T10:34:53;100185.84;;;11.17;60.16
61537;BME280;48695;53.480;-6.300;2024-03-08T10:37:21;100182.97;;;11.25;60.12
61537;BME280;48695;53.480;-6.300;2024-03-08T10:40:03;100184.41;;;11.34;60.10
61537;BME280;48695;53.480;-6.300;2024-03-08T10:42:38;100175.66;;;11.35;60.42
61537;BME280;48695;53.480;-6.300;2024-03-08T10:45:15;100176.75;;;11.54;59.96
61537;BME280;48695;53.480;-6.300;2024-03-08T10:47:49;100136.41;;;11.36;59.54
61537;BME280;48695;53.480;-6.300;2024-03-08T10:50:19;100173.56;;;11.69;59.60
61537;BME280;48695;53.480;-6.300;2024-03-08T10:52:51;100174.25;;;11.75;59.73
61537;BME280;48695;53.480;-6.300;2024-03-08T10:55:17;100174.25;;;11.75;59.41
61537;BME280;48695;53.480;-6.300;2024-03-08T10:57:43;100179.41;;;11.78;59.13
61537;BME280;48695;53.480;-6.300;2024-03-08T11:00:10;100170.56;;;11.82;58.93
61537;BME280;48695;53.480;-6.300;2024-03-08T11:02:37;100173.13;;;11.83;58.75
61537;BME280;48695;53.480;-6.300;2024-03-08T11:05:03;100183.44;;;11.88;59.08
61537;BME280;48695;53.480;-6.300;2024-03-08T11:07:33;100166.72;;;11.92;58.42
61537;BME280;48695;53.480;-6.300;2024-03-08T11:10:02;100172.78;;;11.92;58.57
61537;BME280;48695;53.480;-6.300;2024-03-08T11:12:36;100171.81;;;11.95;58.54
61537;BME280;48695;53.480;-6.300;2024-03-08T11:15:10;100167.31;;;11.99;58.58
61537;BME280;48695;53.480;-6.300;2024-03-08T11:20:09;100160.34;;;11.99;58.21
61537;BME280;48695;53.480;-6.300;2024-03-08T11:22:41;100149.19;;;11.94;57.39
61537;BME280;48695;53.480;-6.300;2024-03-08T11:25:31;100151.81;;;11.94;58.71
61537;BME280;48695;53.480;-6.300;2024-03-08T11:28:26;100146.72;;;11.89;58.63
61537;BME280;48695;53.480;-6.300;2024-03-08T11:33:29;100153.34;;;11.75;57.44
61537;BME280;48695;53.480;-6.300;2024-03-08T11:38:40;100143.34;;;11.62;57.23
61537;BME280;48695;53.480;-6.300;2024-03-08T11:41:06;100146.97;;;11.58;57.33
61537;BME280;48695;53.480;-6.300;2024-03-08T11:43:31;100147.97;;;11.54;57.05
61537;BME280;48695;53.480;-6.300;2024-03-08T11:46:10;100140.81;;;11.59;58.36
61537;BME280;48695;53.480;-6.300;2024-03-08T11:48:35;100142.72;;;11.56;57.90
61537;BME280;48695;53.480;-6.300;2024-03-08T11:51:01;100138.19;;;11.59;57.97
61537;BME280;48695;53.480;-6.300;2024-03-08T11:53:28;100141.63;;;11.61;58.33
61537;BME280;48695;53.480;-6.300;2024-03-08T11:55:53;100126.66;;;11.65;58.24
61537;BME280;48695;53.480;-6.300;2024-03-08T11:58:19;100136.19;;;11.67;57.63
61537;BME280;48695;53.480;-6.300;2024-03-08T12:00:44;100142.19;;;11.69;58.26
61537;BME280;48695;53.480;-6.300;2024-03-08T12:03:11;100124.22;;;11.60;57.63
61537;BME280;48695;53.480;-6.300;2024-03-08T12:05:37;100144.81;;;11.69;57.40
61537;BME280;48695;53.480;-6.300;2024-03-08T12:08:03;100136.28;;;11.64;57.64
61537;BME280;48695;53.480;-6.300;2024-03-08T12:10:30;100117.75;;;11.47;57.35
61537;BME280;48695;53.480;-6.300;2024-03-08T12:12:57;100150.25;;;11.63;57.70
61537;BME280;48695;53.480;-6.300;2024-03-08T12:15:25;100144.28;;;11.60;57.90
61537;BME280;48695;53.480;-6.300;2024-03-08T12:17:52;100132.97;;;11.59;57.83
61537;BME280;48695;53.480;-6.300;2024-03-08T12:20:19;100132.06;;;11.60;57.62
61537;BME280;48695;53.480;-6.300;2024-03-08T12:22:47;100129.56;;;11.57;57.29
61537;BME280;48695;53.480;-6.300;2024-03-08T12:25:13;100122.66;;;11.56;57.41
61537;BME280;48695;53.480;-6.300;2024-03-08T12:27:39;100116.59;;;11.54;57.39
61537;BME280;48695;53.480;-6.300;2024-03-08T12:35:26;100091.69;;;11.44;57.87
61537;BME280;48695;53.480;-6.300;2024-03-08T12:37:59;100098.41;;;11.51;58.03
61537;BME280;48695;53.480;-6.300;2024-03-08T12:40:29;100079.75;;;11.37;57.49
61537;BME280;48695;53.480;-6.300;2024-03-08T12:42:57;100100.34;;;11.46;57.77
61537;BME280;48695;53.480;-6.300;2024-03-08T12:45:25;100086.44;;;11.46;57.62
61537;BME280;48695;53.480;-6.300;2024-03-08T12:47:55;100088.28;;;11.42;57.58
61537;BME280;48695;53.480;-6.300;2024-03-08T12:50:21;100070.38;;;11.31;56.93
61537;BME280;48695;53.480;-6.300;2024-03-08T12:52:47;100079.75;;;11.37;57.42
61537;BME280;48695;53.480;-6.300;2024-03-08T12:55:14;100083.38;;;11.33;57.30
61537;BME280;48695;53.480;-6.300;2024-03-08T12:57:39;100086.91;;;11.32;57.70